createdAt,value
2023-05-12T00:11:42.443Z,99.8
2023-05-12T00:31:42.453Z,99.8
2023-05-12T00:51:42.373Z,99.9
2023-05-12T01:11:42.339Z,100
2023-05-12T01:31:42.320Z,100
2023-05-12T01:51:42.244Z,100
2023-05-12T02:11:42.198Z,100
2023-05-12T02:31:42.172Z,100
2023-05-12T02:51:42.150Z,100
2023-05-12T03:11:42.106Z,100
2023-05-12T03:31:42.087Z,100
2023-05-12T03:51:42.020Z,100
2023-05-12T04:11:42.014Z,100
2023-05-12T04:31:41.966Z,100
2023-05-12T05:11:41.878Z,100
2023-05-12T05:31:41.852Z,99.9
2023-05-12T05:51:41.789Z,99.2
2023-05-12T06:11:41.756Z,97
2023-05-12T06:31:41.786Z,94.5
2023-05-12T06:51:41.678Z,92.5
2023-05-12T07:11:41.641Z,91.1
2023-05-12T07:31:41.771Z,89.9
2023-05-12T07:51:41.587Z,88.9
2023-05-12T09:11:41.414Z,76
2023-05-12T09:31:41.410Z,74.5
2023-05-12T09:51:41.340Z,70.5
2023-05-12T10:31:41.329Z,63
2023-05-12T11:11:41.369Z,65.6
2023-05-12T11:31:41.171Z,62.1
2023-05-12T12:51:46.053Z,56
2023-05-12T15:31:40.653Z,52.8
2023-05-12T16:11:40.571Z,50.6
2023-05-12T16:31:40.505Z,52.2
2023-05-12T16:51:40.508Z,50.8
2023-05-12T17:11:40.445Z,53.2
2023-05-12T17:31:40.469Z,52.9
2023-05-12T17:51:40.340Z,57.3
2023-05-12T18:11:40.306Z,61.6
2023-05-12T18:31:40.294Z,66.7
2023-05-12T18:51:40.235Z,70.4
2023-05-12T19:11:40.180Z,73.9
2023-05-12T19:31:40.169Z,76.3
2023-05-12T19:51:40.104Z,80.8
2023-05-12T20:11:40.059Z,84.5
2023-05-12T20:31:40.081Z,87
2023-05-12T20:51:39.986Z,90.5
2023-05-12T21:11:39.995Z,91
2023-05-12T21:31:39.917Z,91
2023-05-12T21:51:39.888Z,91.5
2023-05-12T22:51:39.763Z,91.8
2023-05-12T23:11:39.718Z,91.8
